Terminal Aerodrome Forecast
Issued by NWS

Home | Current Version | Previous Version | Text Only | Print | Product List | Glossary On
Versions: 1 2 3 4 5 6 7 8 9 10 11 12 13 14
191
FTUS41 KLWX 031124
TAFMTN
TAF
KMTN 031124Z 0312/0412 36003KT 3SM -DZ BR OVC005
     FM031800 02006KT P6SM OVC008
     FM032000 VRB04KT P6SM OVC015
     FM040500 08005KT 3SM BR OVC003=

USA.gov is the U.S. government's official web portal to all federal, state and local government web resources and services.